Time;durP1;ratioP1;P1;durP2;ratioP2;P2;SDS_P1;SDS_P2;PMS_P1;PMS_P2;Temp;Humidity;BMP_temperature;BMP_pressure;BME280_temperature;BME280_humidity;BME280_pressure;Samples;Min_cycle;Max_cycle;Signal;HPM_P1;HPM_P2
2021/10/25 00:02:21;;;;;;;3.83;2.17;;;18.50;74.90;;;;;;5134847;27;20360;-81
2021/10/25 00:04:46;;;;;;;4.35;1.90;;;18.50;75.00;;;;;;5136115;27;20061;-81
2021/10/25 00:07:12;;;;;;;3.30;1.92;;;18.50;75.10;;;;;;5135531;27;20031;-81
2021/10/25 00:09:37;;;;;;;4.38;2.42;;;18.50;75.00;;;;;;5135934;27;20398;-82
2021/10/25 00:12:04;;;;;;;4.13;2.00;;;18.50;75.00;;;;;;5135486;27;20368;-81
2021/10/25 00:14:29;;;;;;;4.35;2.38;;;18.50;75.00;;;;;;5135708;27;20035;-83
2021/10/25 00:16:55;;;;;;;4.30;2.25;;;18.50;75.20;;;;;;5135505;27;20026;-81
2021/10/25 00:19:21;;;;;;;4.00;2.40;;;18.50;75.10;;;;;;5134130;27;20031;-81
2021/10/25 00:21:47;;;;;;;4.15;2.17;;;18.50;75.00;;;;;;5134381;27;20070;-80
2021/10/25 00:24:13;;;;;;;5.13;2.15;;;18.50;75.00;;;;;;5135150;27;20094;-82
2021/10/25 00:26:39;;;;;;;4.65;2.20;;;18.50;74.90;;;;;;5135514;27;20019;-81
2021/10/25 00:29:04;;;;;;;3.67;1.75;;;18.40;74.70;;;;;;5135119;27;20022;-81
2021/10/25 00:31:30;;;;;;;3.65;1.88;;;18.40;74.60;;;;;;5135342;27;20051;-80
2021/10/25 00:33:56;;;;;;;2.67;1.73;;;18.40;74.60;;;;;;5135134;27;20364;-81
2021/10/25 00:36:22;;;;;;;4.43;2.10;;;18.40;74.50;;;;;;5135309;27;20418;-80
2021/10/25 00:38:47;;;;;;;4.63;2.30;;;18.40;74.40;;;;;;5135412;27;20398;-82
2021/10/25 00:41:13;;;;;;;3.63;1.90;;;18.40;74.30;;;;;;5135018;27;20027;-83
2021/10/25 00:43:39;;;;;;;4.60;2.35;;;18.40;74.30;;;;;;5135029;27;20030;-82
2021/10/25 00:46:06;;;;;;;3.92;1.70;;;18.40;74.20;;;;;;5134716;27;20034;-81
2021/10/25 00:48:33;;;;;;;3.17;1.85;;;18.30;74.10;;;;;;5135079;27;20054;-83
2021/10/25 00:50:59;;;;;;;3.35;2.00;;;18.30;74.10;;;;;;5134716;27;20019;-82
2021/10/25 00:53:24;;;;;;;5.03;2.20;;;18.30;74.10;;;;;;5134871;27;20440;-81
2021/10/25 00:55:51;;;;;;;2.70;1.80;;;18.30;73.90;;;;;;5135234;27;20023;-81
2021/10/25 00:58:17;;;;;;;4.25;2.25;;;18.30;73.90;;;;;;5133786;27;20114;-82
2021/10/25 01:00:43;;;;;;;5.07;2.33;;;18.30;73.80;;;;;;5133496;27;20118;-81
2021/10/25 01:03:08;;;;;;;5.40;2.80;;;18.30;73.80;;;;;;5134539;27;20424;-81
2021/10/25 01:05:34;;;;;;;3.50;2.13;;;18.30;73.70;;;;;;5134637;27;20435;-81
2021/10/25 01:08:03;;;;;;;2.92;1.58;;;18.30;73.60;;;;;;5134350;27;20019;-81
2021/10/25 01:10:29;;;;;;;3.65;1.90;;;18.30;73.60;;;;;;5133217;27;20062;-80
2021/10/25 01:12:56;;;;;;;3.58;1.83;;;18.30;73.50;;;;;;5134357;27;20011;-80
2021/10/25 01:15:22;;;;;;;3.88;1.98;;;18.30;73.50;;;;;;5134421;27;20115;-81
2021/10/25 01:17:59;;;;;;;3.63;1.83;;;18.30;73.40;;;;;;5134806;27;20098;-79
2021/10/25 01:20:27;;;;;;;3.47;1.95;;;18.20;73.40;;;;;;5134427;27;20066;-82
2021/10/25 01:22:53;;;;;;;4.18;2.03;;;18.20;73.30;;;;;;5134320;27;20064;-82
2021/10/25 01:25:19;;;;;;;4.15;1.92;;;18.20;73.20;;;;;;5134684;27;20027;-81
2021/10/25 01:27:45;;;;;;;3.83;2.20;;;18.20;73.30;;;;;;5134305;27;20048;-82
2021/10/25 01:30:11;;;;;;;2.80;1.77;;;18.20;73.20;;;;;;5133979;27;20023;-81
2021/10/25 01:32:37;;;;;;;4.03;1.70;;;18.20;73.10;;;;;;5134088;27;20034;-81
2021/10/25 01:35:04;;;;;;;4.18;1.95;;;18.20;73.10;;;;;;5133982;27;20031;-81
2021/10/25 01:37:30;;;;;;;5.50;2.28;;;18.20;73.00;;;;;;5134084;27;20083;-80
2021/10/25 01:39:55;;;;;;;3.35;1.63;;;18.20;73.00;;;;;;5133681;27;20479;-81
2021/10/25 01:42:22;;;;;;;2.92;1.77;;;18.20;72.90;;;;;;5133956;27;20023;-80
2021/10/25 01:44:48;;;;;;;3.78;1.65;;;18.20;72.90;;;;;;5132812;27;20050;-82
2021/10/25 01:47:14;;;;;;;3.10;1.90;;;18.20;72.90;;;;;;5133737;27;20028;-81
2021/10/25 01:49:43;;;;;;;2.30;1.70;;;18.20;72.80;;;;;;5133887;27;20034;-81
2021/10/25 01:52:09;;;;;;;3.92;2.00;;;18.10;72.70;;;;;;5133555;27;20023;-82
2021/10/25 01:54:35;;;;;;;2.90;1.67;;;18.10;72.70;;;;;;5133855;27;20046;-83
2021/10/25 01:57:00;;;;;;;4.15;2.05;;;18.20;72.70;;;;;;5133569;27;20061;-82
2021/10/25 01:59:26;;;;;;;3.53;1.90;;;18.10;72.50;;;;;;5133653;27;20479;-81
2021/10/25 02:01:52;;;;;;;2.80;1.60;;;18.10;72.50;;;;;;5133366;27;20060;-80
2021/10/25 02:04:17;;;;;;;3.15;1.90;;;18.10;72.50;;;;;;5133899;27;20098;-82
2021/10/25 02:06:43;;;;;;;3.72;1.80;;;18.10;72.50;;;;;;5133512;27;20542;-81
2021/10/25 02:09:08;;;;;;;3.67;1.98;;;18.10;72.40;;;;;;5133232;27;20034;-81
2021/10/25 02:11:35;;;;;;;3.38;1.77;;;18.10;72.40;;;;;;5133461;27;20027;-82
2021/10/25 02:14:00;;;;;;;4.28;2.72;;;18.10;72.30;;;;;;5133086;27;20027;-80
2021/10/25 02:16:26;;;;;;;2.65;1.70;;;18.10;72.40;;;;;;5133285;27;20054;-81
2021/10/25 02:18:52;;;;;;;4.75;2.22;;;18.10;72.40;;;;;;5131278;27;20026;-80
2021/10/25 02:21:18;;;;;;;2.85;1.85;;;18.10;72.30;;;;;;5133662;27;20023;-79
2021/10/25 02:23:44;;;;;;;2.70;1.80;;;18.00;72.30;;;;;;5133122;27;20487;-80
2021/10/25 02:26:10;;;;;;;2.95;2.05;;;18.10;72.40;;;;;;5132906;27;20042;-81
2021/10/25 02:28:36;;;;;;;3.65;2.03;;;18.00;72.30;;;;;;5133128;27;20019;-83
2021/10/25 02:31:01;;;;;;;3.17;1.90;;;18.00;72.30;;;;;;5132737;27;20023;-81
2021/10/25 02:33:27;;;;;;;4.38;1.40;;;18.00;72.30;;;;;;5133068;27;20036;-81
2021/10/25 02:35:52;;;;;;;3.83;1.80;;;18.00;72.30;;;;;;5132672;27;20471;-81
2021/10/25 02:38:19;;;;;;;3.50;1.80;;;18.00;72.30;;;;;;5133144;27;20051;-81
2021/10/25 02:40:45;;;;;;;3.92;1.83;;;18.00;72.30;;;;;;5132763;27;20487;-80
2021/10/25 02:43:11;;;;;;;4.25;1.88;;;18.00;72.30;;;;;;5132534;27;20027;-80
2021/10/25 02:45:37;;;;;;;3.15;2.10;;;18.00;72.30;;;;;;5132586;27;20517;-81
2021/10/25 02:48:05;;;;;;;3.33;1.80;;;18.00;72.30;;;;;;5132639;27;20107;-80
2021/10/25 02:50:31;;;;;;;3.50;2.00;;;18.00;72.30;;;;;;5132684;27;20019;-80
2021/10/25 02:52:56;;;;;;;3.20;2.08;;;18.00;72.30;;;;;;5132402;27;20429;-81
2021/10/25 02:55:22;;;;;;;3.05;1.85;;;18.00;72.30;;;;;;5132569;27;20030;-80
2021/10/25 02:57:48;;;;;;;2.97;1.77;;;17.90;72.10;;;;;;5131529;27;20395;-81
2021/10/25 03:00:15;;;;;;;4.07;1.60;;;18.00;72.20;;;;;;5132196;27;20035;-81
2021/10/25 03:02:42;;;;;;;3.65;1.70;;;17.90;72.20;;;;;;5132511;27;20523;-81
2021/10/25 03:05:09;;;;;;;2.95;1.55;;;17.90;72.20;;;;;;5132301;27;20015;-81
2021/10/25 03:07:35;;;;;;;3.45;1.85;;;17.90;72.20;;;;;;5132375;27;20023;-80
2021/10/25 03:10:00;;;;;;;2.97;1.80;;;17.90;72.10;;;;;;5132187;27;20096;-81
2021/10/25 03:12:26;;;;;;;3.80;1.90;;;17.90;72.10;;;;;;5132356;27;20475;-81
2021/10/25 03:14:53;;;;;;;2.53;1.48;;;17.90;72.10;;;;;;5131974;27;20063;-82
2021/10/25 03:17:19;;;;;;;2.60;1.52;;;17.90;72.10;;;;;;5132624;27;20023;-81
2021/10/25 03:19:46;;;;;;;3.15;1.70;;;17.90;72.00;;;;;;5132509;27;20028;-82
2021/10/25 03:22:13;;;;;;;5.18;2.50;;;17.90;72.00;;;;;;5132165;27;20019;-82
2021/10/25 03:24:39;;;;;;;3.75;2.05;;;17.90;72.00;;;;;;5132158;27;20037;-82
2021/10/25 03:27:04;;;;;;;3.83;1.95;;;17.90;72.00;;;;;;5132017;27;20019;-80
2021/10/25 03:29:30;;;;;;;3.38;1.77;;;17.90;71.90;;;;;;5130923;27;20138;-81
2021/10/25 03:31:56;;;;;;;5.80;2.53;;;17.90;72.00;;;;;;5135184;27;20068;-80
2021/10/25 03:34:22;;;;;;;3.38;1.80;;;17.90;72.00;;;;;;5136482;27;20058;-79
2021/10/25 03:36:49;;;;;;;3.75;2.08;;;17.90;72.70;;;;;;5136848;27;20088;-80
2021/10/25 03:39:21;;;;;;;2.58;1.60;;;17.90;71.90;;;;;;5135995;27;20052;-81
2021/10/25 03:41:47;;;;;;;4.65;2.00;;;17.90;72.00;;;;;;5136494;27;20031;-81
2021/10/25 03:44:28;;;;;;;3.58;1.90;;;17.90;71.90;;;;;;5136255;27;20098;-81
2021/10/25 03:47:03;;;;;;;2.92;1.70;;;17.90;72.70;;;;;;5135818;27;20486;-82
2021/10/25 03:49:36;;;;;;;2.75;2.00;;;17.90;72.00;;;;;;5136229;27;20031;-82
2021/10/25 03:52:11;;;;;;;3.05;1.35;;;17.80;71.90;;;;;;5135769;27;20055;-81
2021/10/25 03:54:47;;;;;;;4.27;1.80;;;17.80;71.90;;;;;;5134534;27;20048;-81
2021/10/25 04:25:21;;;;;;;2.78;1.75;;;17.80;72.00;;;;;;5135565;27;20022;-80
2021/10/25 04:29:50;;;;;;;2.53;1.63;;;17.80;72.00;;;;;;5135669;27;20513;-80
2021/10/25 04:32:15;;;;;;;2.50;1.70;;;17.80;72.00;;;;;;5135216;27;20027;-80
2021/10/25 04:34:41;;;;;;;2.38;1.75;;;17.80;72.00;;;;;;5134118;27;20083;-82
2021/10/25 04:37:06;;;;;;;3.75;1.90;;;17.80;72.00;;;;;;5135137;27;20058;-81
2021/10/25 04:39:32;;;;;;;3.17;1.98;;;17.80;72.00;;;;;;5135195;27;20023;-82
2021/10/25 04:41:58;;;;;;;2.85;1.60;;;17.80;72.00;;;;;;5134472;27;20458;-81
2021/10/25 04:44:24;;;;;;;3.47;1.95;;;17.80;72.10;;;;;;5135125;27;20391;-79
2021/10/25 04:46:50;;;;;;;3.05;1.75;;;17.70;72.10;;;;;;5135154;27;20050;-80
2021/10/25 04:49:15;;;;;;;3.10;2.05;;;17.70;72.10;;;;;;5135086;27;20471;-81
2021/10/25 04:51:41;;;;;;;2.85;1.70;;;17.70;72.10;;;;;;5133795;27;20072;-79
2021/10/25 04:54:07;;;;;;;3.38;1.80;;;17.70;72.20;;;;;;5134782;27;20035;-80
2021/10/25 04:56:32;;;;;;;3.42;1.77;;;17.70;72.10;;;;;;5134840;27;20024;-80
2021/10/25 04:58:58;;;;;;;3.67;1.42;;;17.70;72.10;;;;;;5133108;27;20110;-80
2021/10/25 05:01:23;;;;;;;3.28;1.73;;;17.80;72.10;;;;;;5134920;27;20472;-79
2021/10/25 05:03:49;;;;;;;3.58;1.90;;;17.80;72.10;;;;;;5135115;27;20046;-79
2021/10/25 05:06:19;;;;;;;3.08;1.58;;;17.80;72.00;;;;;;5134532;27;20382;-79
2021/10/25 05:08:45;;;;;;;3.22;1.63;;;17.80;72.00;;;;;;5134682;27;20070;-80
2021/10/25 05:11:11;;;;;;;3.35;1.70;;;17.80;72.00;;;;;;5134322;27;20068;-79
2021/10/25 05:13:38;;;;;;;2.30;1.52;;;17.80;72.00;;;;;;5134463;27;20031;-79
2021/10/25 05:16:05;;;;;;;2.97;1.55;;;17.80;72.00;;;;;;5134446;27;20110;-79
2021/10/25 05:18:30;;;;;;;3.75;1.65;;;17.80;71.90;;;;;;5134430;27;20031;-80
2021/10/25 05:20:56;;;;;;;2.97;1.67;;;17.80;72.00;;;;;;5132738;27;20054;-79
2021/10/25 05:23:21;;;;;;;3.08;1.70;;;17.80;71.90;;;;;;5134462;27;20023;-80
2021/10/25 05:25:50;;;;;;;2.25;1.48;;;17.80;72.00;;;;;;5134483;27;20019;-80
2021/10/25 05:28:16;;;;;;;3.97;1.98;;;17.90;72.00;;;;;;5134330;27;20496;-78
2021/10/25 05:30:42;;;;;;;2.75;1.80;;;17.90;72.00;;;;;;5134262;27;20391;-79
2021/10/25 05:33:08;;;;;;;2.13;1.50;;;17.90;71.90;;;;;;5134034;27;20027;-80
2021/10/25 05:35:34;;;;;;;3.45;1.48;;;17.90;71.90;;;;;;5134233;27;20026;-79
2021/10/25 05:38:00;;;;;;;3.25;2.00;;;17.90;71.80;;;;;;5133896;27;20479;-80
2021/10/25 05:40:26;;;;;;;2.15;1.48;;;18.00;71.90;;;;;;5133490;27;20128;-78
2021/10/25 05:42:52;;;;;;;2.55;2.00;;;18.00;71.80;;;;;;5133819;27;20473;-78
2021/10/25 05:45:18;;;;;;;2.92;1.20;;;18.00;71.80;;;;;;5134016;27;20577;-79
2021/10/25 05:47:45;;;;;;;2.50;1.45;;;18.00;71.80;;;;;;5133886;27;20094;-78
2021/10/25 05:50:11;;;;;;;2.67;1.60;;;18.00;71.70;;;;;;5133600;27;20464;-80
2021/10/25 05:52:36;;;;;;;3.92;1.70;;;18.10;71.80;;;;;;5133593;27;20023;-83
2021/10/25 05:55:03;;;;;;;2.40;1.48;;;18.10;71.70;;;;;;5133020;27;20019;-82
2021/10/25 05:57:28;;;;;;;3.22;1.63;;;18.10;71.70;;;;;;5133840;27;20073;-81
2021/10/25 05:59:54;;;;;;;3.10;1.65;;;18.10;71.70;;;;;;5133427;27;20432;-81
2021/10/25 06:02:26;;;;;;;3.95;2.30;;;18.10;71.60;;;;;;5133815;27;20069;-81
2021/10/25 06:04:51;;;;;;;3.22;2.10;;;18.10;71.60;;;;;;5133390;27;20019;-80
2021/10/25 06:07:17;;;;;;;3.13;1.45;;;18.10;71.60;;;;;;5133840;27;20444;-80
2021/10/25 06:09:44;;;;;;;2.88;1.70;;;18.20;71.60;;;;;;5133462;27;20051;-79
2021/10/25 06:12:36;;;;;;;2.45;1.50;;;18.20;71.60;;;;;;5133096;27;20019;-81
2021/10/25 06:15:05;;;;;;;4.30;1.70;;;18.20;71.70;;;;;;5132993;27;20493;-78
2021/10/25 06:19:59;;;;;;;2.90;1.58;;;18.20;72.20;;;;;;5132813;27;20035;-78
2021/10/25 06:22:29;;;;;;;2.72;1.50;;;18.20;72.10;;;;;;5133149;27;20479;-80
2021/10/25 06:24:55;;;;;;;7.93;1.77;;;18.20;72.20;;;;;;5133110;27;20451;-77
2021/10/25 06:27:21;;;;;;;3.90;2.10;;;18.30;72.40;;;;;;5058694;27;20101;-82
2021/10/25 06:29:46;;;;;;;3.95;2.20;;;18.30;72.40;;;;;;5037351;28;20066;-80
2021/10/25 06:32:12;;;;;;;3.70;2.20;;;18.30;72.30;;;;;;5035617;28;20053;-82
2021/10/25 06:34:43;;;;;;;5.20;2.85;;;18.30;72.30;;;;;;5029796;28;20031;-78
2021/10/25 06:37:09;;;;;;;8.32;2.97;;;18.30;72.40;;;;;;5030847;28;20410;-83
2021/10/25 06:39:43;;;;;;;3.90;2.33;;;18.30;72.60;;;;;;5031863;28;20116;-80
2021/10/25 06:42:09;;;;;;;4.57;2.17;;;18.40;72.70;;;;;;5036360;28;20043;-83
2021/10/25 06:45:00;;;;;;;5.05;2.40;;;18.30;72.50;;;;;;5038908;28;20033;-83
2021/10/25 06:47:23;;;;;;;11.10;2.75;;;18.30;72.50;;;;;;5040069;28;20490;-79
2021/10/25 06:49:49;;;;;;;4.30;2.30;;;18.40;72.90;;;;;;5045426;28;20044;-78
2021/10/25 06:52:16;;;;;;;5.10;2.42;;;18.40;73.00;;;;;;5038033;28;20612;-77
2021/10/25 06:54:41;;;;;;;5.40;2.47;;;18.30;72.90;;;;;;5036698;28;20025;-80
2021/10/25 06:57:07;;;;;;;3.33;1.75;;;18.30;72.90;;;;;;5031559;28;20034;-85
2021/10/25 06:59:33;;;;;;;5.00;2.50;;;18.30;73.10;;;;;;5028697;28;20021;-82
2021/10/25 07:01:59;;;;;;;4.88;2.05;;;18.30;73.10;;;;;;5027201;28;20039;-80
2021/10/25 07:04:24;;;;;;;6.60;2.35;;;18.30;73.10;;;;;;5028687;28;20022;-78
2021/10/25 07:06:52;;;;;;;4.57;2.00;;;18.30;73.10;;;;;;5028806;28;20030;-77
2021/10/25 07:09:19;;;;;;;4.57;2.03;;;18.30;73.00;;;;;;5028942;28;20074;-79
2021/10/25 07:11:45;;;;;;;5.43;2.35;;;18.30;72.90;;;;;;5027638;28;20105;-80
2021/10/25 07:14:13;;;;;;;4.45;2.35;;;18.30;72.90;;;;;;5028398;28;20025;-78
2021/10/25 07:27:16;;;;;;;4.10;2.05;;;18.20;73.10;;;;;;5028354;28;20028;-78
2021/10/25 08:07:27;;;;;;;4.70;2.35;;;18.10;72.90;;;;;;5027490;28;20036;-76
2021/10/25 08:09:56;;;;;;;3.50;1.90;;;18.10;72.80;;;;;;5027577;28;20021;-76
2021/10/25 08:12:28;;;;;;;3.35;2.25;;;18.00;72.80;;;;;;5028188;28;20021;-83
2021/10/25 08:15:01;;;;;;;4.30;1.90;;;18.10;72.80;;;;;;5028277;28;20049;-82
2021/10/25 08:17:40;;;;;;;3.22;1.80;;;18.10;72.80;;;;;;5030360;28;20022;-79
2021/10/25 08:20:07;;;;;;;3.53;2.25;;;18.00;72.80;;;;;;5031266;28;20537;-79
2021/10/25 08:22:34;;;;;;;3.95;2.40;;;18.00;72.70;;;;;;5031568;28;20473;-79
2021/10/25 08:25:00;;;;;;;3.83;2.22;;;18.00;72.70;;;;;;5031235;28;20026;-76
2021/10/25 08:27:26;;;;;;;4.68;2.00;;;18.00;72.70;;;;;;5031330;28;20041;-83
2021/10/25 08:29:52;;;;;;;3.90;1.90;;;18.00;72.70;;;;;;5030921;28;20564;-80
2021/10/25 08:40:06;;;;;;;3.33;1.85;;;18.00;72.80;;;;;;5030833;28;20037;-79
2021/10/25 08:42:36;;;;;;;3.90;1.90;;;18.00;72.70;;;;;;5029690;28;20053;-78
2021/10/25 08:45:10;;;;;;;3.05;2.15;;;18.00;72.70;;;;;;5030570;28;20508;-78
2021/10/25 08:47:42;;;;;;;4.03;2.35;;;18.00;72.70;;;;;;5029482;28;20401;-77
2021/10/25 08:50:11;;;;;;;3.83;2.70;;;18.00;72.70;;;;;;5030494;28;20082;-81
2021/10/25 08:52:37;;;;;;;3.65;1.95;;;18.00;72.60;;;;;;5030789;28;20022;-81
2021/10/25 08:55:05;;;;;;;4.22;2.17;;;17.90;72.60;;;;;;5030648;28;20104;-83
2021/10/25 08:57:32;;;;;;;3.22;1.83;;;17.90;72.50;;;;;;5030817;28;20013;-86
2021/10/25 09:00:00;;;;;;;4.70;1.92;;;17.90;72.60;;;;;;5030384;28;20036;-79
2021/10/25 09:02:28;;;;;;;4.13;2.30;;;17.90;72.60;;;;;;5029504;28;20033;-78
2021/10/25 09:05:04;;;;;;;3.03;1.90;;;17.90;72.60;;;;;;5030360;28;20071;-83
2021/10/25 09:07:30;;;;;;;4.38;2.25;;;17.90;72.70;;;;;;5030531;28;20064;-85
2021/10/25 09:09:56;;;;;;;3.17;2.28;;;17.90;72.70;;;;;;5030332;28;20021;-77
2021/10/25 09:12:22;;;;;;;3.85;2.15;;;17.90;72.70;;;;;;5030521;28;20582;-80
2021/10/25 09:14:52;;;;;;;3.38;1.75;;;17.90;72.70;;;;;;5030832;28;20025;-77
2021/10/25 09:17:17;;;;;;;3.60;2.28;;;17.90;72.70;;;;;;5030604;28;20108;-84
2021/10/25 09:19:47;;;;;;;3.75;2.15;;;17.90;72.70;;;;;;5030425;28;20162;-83
2021/10/25 09:22:16;;;;;;;2.95;2.15;;;17.90;72.80;;;;;;5030144;28;20100;-76
2021/10/25 09:24:56;;;;;;;4.10;2.30;;;17.90;72.80;;;;;;5030177;28;20033;-77
2021/10/25 09:27:37;;;;;;;4.68;2.53;;;17.90;72.80;;;;;;5028526;28;20116;-77
2021/10/25 09:30:11;;;;;;;4.90;2.40;;;17.80;72.70;;;;;;5029426;28;20025;-81
2021/10/25 09:32:36;;;;;;;3.78;2.28;;;17.90;72.80;;;;;;5030027;28;20021;-79
2021/10/25 09:35:05;;;;;;;4.20;1.95;;;17.90;72.80;;;;;;5029850;28;20028;-77
2021/10/25 09:37:43;;;;;;;3.65;1.90;;;17.90;72.80;;;;;;5030018;28;20014;-79
2021/10/25 09:40:23;;;;;;;4.43;2.30;;;17.80;72.80;;;;;;5029680;28;20034;-78
2021/10/25 09:50:31;;;;;;;3.35;2.00;;;17.80;73.00;;;;;;5030067;28;20044;-79
2021/10/25 09:52:58;;;;;;;3.58;2.10;;;17.80;72.90;;;;;;5029535;28;20013;-80
2021/10/25 09:55:23;;;;;;;3.40;2.03;;;17.80;73.00;;;;;;5029932;28;20033;-76
2021/10/25 09:58:04;;;;;;;3.03;2.05;;;17.80;73.10;;;;;;5029986;28;20028;-80
2021/10/25 10:00:30;;;;;;;3.15;2.38;;;17.80;73.00;;;;;;5029531;28;20036;-77
2021/10/25 10:02:56;;;;;;;4.97;2.60;;;17.80;73.00;;;;;;5029522;28;20053;-77
2021/10/25 10:05:25;;;;;;;3.55;2.00;;;17.80;73.10;;;;;;5029608;28;20079;-76
2021/10/25 10:07:50;;;;;;;3.03;2.05;;;17.80;73.10;;;;;;5028331;28;20025;-76
2021/10/25 10:10:21;;;;;;;6.05;2.40;;;17.80;73.10;;;;;;5029757;28;20485;-77
2021/10/25 10:12:49;;;;;;;3.92;2.05;;;17.80;73.10;;;;;;5029667;28;20041;-79
2021/10/25 10:15:14;;;;;;;5.45;2.50;;;17.80;73.20;;;;;;5029157;28;20029;-76
2021/10/25 10:17:46;;;;;;;3.85;1.80;;;17.80;73.20;;;;;;5029445;28;20165;-77
2021/10/25 10:20:20;;;;;;;4.88;2.17;;;17.80;73.20;;;;;;5028951;28;20427;-76
2021/10/25 10:22:50;;;;;;;3.72;2.20;;;17.80;73.20;;;;;;5029690;28;20100;-81
2021/10/25 10:25:47;;;;;;;4.85;2.35;;;17.80;73.30;;;;;;5029487;28;20017;-79
2021/10/25 10:28:15;;;;;;;4.65;2.80;;;17.80;73.30;;;;;;5027958;28;20075;-86
2021/10/25 10:30:53;;;;;;;3.15;2.35;;;17.80;73.30;;;;;;5029259;28;20034;-80
2021/10/25 10:33:52;;;;;;;2.63;1.98;;;17.80;73.30;;;;;;5029467;28;20385;-80
2021/10/25 10:36:24;;;;;;;3.03;2.00;;;17.80;73.30;;;;;;5029534;28;20070;-79
2021/10/25 10:38:53;;;;;;;4.30;2.60;;;17.80;73.30;;;;;;5029657;28;20021;-80
2021/10/25 10:41:22;;;;;;;3.75;2.60;;;17.80;73.30;;;;;;5029330;28;20044;-83
2021/10/25 10:44:06;;;;;;;4.65;2.80;;;17.80;73.30;;;;;;5029384;28;20033;-84
2021/10/25 10:46:44;;;;;;;4.38;2.92;;;17.80;73.40;;;;;;5028696;28;20121;-79
2021/10/25 10:49:31;;;;;;;4.25;2.70;;;17.80;73.50;;;;;;5028769;28;20360;-81
2021/10/25 10:52:38;;;;;;;4.45;3.10;;;17.70;73.50;;;;;;5028578;28;20079;-79
2021/10/25 10:55:18;;;;;;;4.78;2.85;;;17.80;73.60;;;;;;5028568;28;20480;-84
2021/10/25 11:00:25;;;;;;;4.85;3.00;;;17.70;73.60;;;;;;5028779;28;20393;-76
2021/10/25 11:03:12;;;;;;;5.63;3.35;;;17.70;73.70;;;;;;5028997;28;20029;-77
2021/10/25 11:06:10;;;;;;;6.13;2.88;;;17.70;73.80;;;;;;5027501;28;20040;-77
2021/10/25 11:08:41;;;;;;;4.55;2.78;;;17.70;73.80;;;;;;5028682;28;20026;-77
2021/10/25 11:11:13;;;;;;;3.75;2.60;;;17.70;73.80;;;;;;5028467;28;20024;-79
2021/10/25 11:13:50;;;;;;;5.72;3.17;;;17.70;73.80;;;;;;5028534;28;20050;-76
2021/10/25 11:16:23;;;;;;;4.78;2.60;;;17.70;73.90;;;;;;5027632;28;20104;-77
2021/10/25 11:18:51;;;;;;;4.18;3.08;;;17.70;74.00;;;;;;5028945;28;20034;-81
2021/10/25 11:21:30;;;;;;;3.97;3.03;;;17.70;74.00;;;;;;5027405;28;20033;-77
2021/10/25 11:24:06;;;;;;;3.72;2.97;;;17.70;74.00;;;;;;5028307;28;20026;-78
2021/10/25 11:26:48;;;;;;;5.28;2.90;;;17.70;74.10;;;;;;5028505;28;20057;-78
2021/10/25 11:29:24;;;;;;;5.03;3.03;;;17.60;74.00;;;;;;5028279;28;20025;-77
2021/10/25 11:31:51;;;;;;;3.90;2.75;;;17.70;74.10;;;;;;5028860;28;20025;-78
2021/10/25 11:34:26;;;;;;;4.22;2.83;;;17.70;74.10;;;;;;5027371;28;20025;-76
2021/10/25 11:36:59;;;;;;;3.72;2.85;;;17.70;74.10;;;;;;5026811;28;20067;-76
2021/10/25 11:39:40;;;;;;;4.47;3.15;;;17.70;74.10;;;;;;5028315;28;20036;-78
2021/10/25 11:42:11;;;;;;;4.85;3.47;;;17.70;74.10;;;;;;5028066;28;20068;-78
2021/10/25 11:44:39;;;;;;;5.90;3.42;;;17.70;74.10;;;;;;5028266;28;20473;-83
2021/10/25 11:47:24;;;;;;;4.13;2.80;;;17.70;74.10;;;;;;5027831;28;20447;-77
2021/10/25 11:49:52;;;;;;;4.47;3.17;;;17.80;74.00;;;;;;5028496;28;20101;-78
2021/10/25 11:52:18;;;;;;;4.82;2.80;;;17.90;73.70;;;;;;5030254;28;20528;-80
2021/10/25 11:54:55;;;;;;;5.07;3.35;;;18.20;72.80;;;;;;5031621;28;20045;-77
2021/10/25 11:57:22;;;;;;;5.88;3.70;;;18.50;72.10;;;;;;5031731;28;20064;-76
2021/10/25 12:00:14;;;;;;;5.28;3.17;;;18.70;71.00;;;;;;5031641;28;20037;-77
2021/10/25 12:02:40;;;;;;;4.20;2.88;;;18.60;70.70;;;;;;5032020;28;20091;-76
2021/10/25 12:05:08;;;;;;;4.65;3.05;;;18.60;70.80;;;;;;5031167;28;20438;-76
2021/10/25 12:07:44;;;;;;;4.60;2.88;;;18.60;71.20;;;;;;5031401;28;20469;-77
2021/10/25 12:10:10;;;;;;;4.57;3.53;;;18.50;71.70;;;;;;5031100;28;20409;-77
2021/10/25 12:12:36;;;;;;;5.95;3.55;;;18.50;71.20;;;;;;5031429;28;20063;-76
2021/10/25 12:15:03;;;;;;;4.07;3.03;;;18.40;71.30;;;;;;5030929;28;20062;-81
2021/10/25 12:17:34;;;;;;;4.50;3.05;;;18.40;71.50;;;;;;5031207;28;20018;-77
2021/10/25 12:20:10;;;;;;;5.25;3.53;;;18.30;71.70;;;;;;5030955;28;20469;-76
2021/10/25 12:22:37;;;;;;;4.40;2.90;;;18.30;71.80;;;;;;5031066;28;20030;-77
2021/10/25 12:25:04;;;;;;;4.60;3.17;;;18.30;72.00;;;;;;5030943;28;20029;-76
2021/10/25 12:27:38;;;;;;;4.68;2.70;;;18.20;72.10;;;;;;5030987;28;20101;-81
2021/10/25 12:30:13;;;;;;;6.17;3.20;;;18.20;72.20;;;;;;5030850;28;20028;-79
2021/10/25 12:32:50;;;;;;;4.30;2.95;;;18.20;72.30;;;;;;5030978;28;20029;-81
2021/10/25 12:35:16;;;;;;;3.60;2.70;;;18.20;72.40;;;;;;5031302;28;20025;-85
2021/10/25 12:37:42;;;;;;;6.03;3.25;;;18.20;72.40;;;;;;5031030;28;20526;-77
2021/10/25 12:40:19;;;;;;;4.28;3.05;;;18.20;72.50;;;;;;5013122;28;20581;-77
2021/10/25 12:42:46;;;;;;;4.68;3.10;;;18.10;72.40;;;;;;5030904;28;20025;-82
2021/10/25 12:45:20;;;;;;;3.83;2.65;;;18.20;72.60;;;;;;5030602;28;20474;-84
2021/10/25 12:47:51;;;;;;;4.65;3.25;;;18.20;72.60;;;;;;5031017;28;20030;-76
2021/10/25 12:50:17;;;;;;;6.05;3.28;;;18.20;72.60;;;;;;5031244;28;20377;-78
2021/10/25 12:52:52;;;;;;;4.55;2.70;;;18.20;72.60;;;;;;5030760;28;20493;-77
2021/10/25 12:55:17;;;;;;;4.57;3.10;;;18.20;72.60;;;;;;5029609;28;20025;-76
2021/10/25 12:57:44;;;;;;;4.32;2.92;;;18.20;72.60;;;;;;5030610;28;20037;-81
2021/10/25 13:00:12;;;;;;;7.00;3.05;;;18.20;72.70;;;;;;5030246;28;20033;-77
2021/10/25 13:02:47;;;;;;;4.28;3.08;;;18.10;72.90;;;;;;5030315;28;20053;-83
2021/10/25 13:05:18;;;;;;;4.22;3.20;;;18.10;72.90;;;;;;5030190;28;20428;-81
2021/10/25 13:07:57;;;;;;;4.45;2.65;;;18.10;72.90;;;;;;5030576;28;20025;-77
2021/10/25 13:10:36;;;;;;;3.40;2.20;;;18.10;73.00;;;;;;5030489;28;20059;-77
2021/10/25 13:13:04;;;;;;;3.92;2.50;;;18.10;73.20;;;;;;5030284;28;20086;-79
2021/10/25 13:15:30;;;;;;;4.13;2.58;;;18.10;73.10;;;;;;5029025;28;20113;-82
2021/10/25 13:17:59;;;;;;;3.75;2.60;;;18.00;73.10;;;;;;5028911;28;20042;-81
2021/10/25 13:20:27;;;;;;;4.95;2.53;;;18.00;73.30;;;;;;5030235;28;20029;-78
2021/10/25 13:22:58;;;;;;;5.05;3.03;;;18.00;73.40;;;;;;5030489;28;20049;-79
2021/10/25 13:25:24;;;;;;;4.57;3.08;;;18.00;73.40;;;;;;5030280;28;20032;-77
2021/10/25 13:27:52;;;;;;;3.85;2.42;;;18.00;73.40;;;;;;5030497;28;20025;-77
2021/10/25 13:30:20;;;;;;;4.97;2.65;;;18.00;73.60;;;;;;5030417;28;20073;-77
2021/10/25 13:32:46;;;;;;;2.80;2.15;;;18.00;73.70;;;;;;5029311;28;20033;-80
2021/10/25 13:35:15;;;;;;;4.60;2.60;;;18.00;73.90;;;;;;5030041;28;20444;-77
2021/10/25 13:37:41;;;;;;;4.13;2.95;;;18.00;74.00;;;;;;5030007;28;20052;-79
2021/10/25 13:40:07;;;;;;;5.47;2.88;;;17.90;73.90;;;;;;5029741;28;20045;-81
2021/10/25 13:42:34;;;;;;;3.55;2.53;;;17.90;74.10;;;;;;5030033;28;20102;-79
2021/10/25 13:45:00;;;;;;;4.60;2.83;;;17.90;74.10;;;;;;5029559;28;20454;-80
2021/10/25 13:47:26;;;;;;;3.78;2.42;;;17.90;74.20;;;;;;5029868;28;20026;-83
2021/10/25 13:49:56;;;;;;;3.70;2.40;;;17.90;74.50;;;;;;5029557;28;20028;-83
2021/10/25 13:52:22;;;;;;;3.80;2.42;;;17.90;74.60;;;;;;5029723;28;20041;-79
2021/10/25 13:54:49;;;;;;;3.50;2.40;;;17.90;74.60;;;;;;5030005;28;20028;-81
2021/10/25 13:57:20;;;;;;;3.40;2.20;;;17.90;74.70;;;;;;5029554;28;20104;-77
2021/10/25 13:59:45;;;;;;;7.15;2.60;;;17.90;74.70;;;;;;5030339;28;20022;-84
2021/10/25 14:02:13;;;;;;;3.90;2.42;;;17.90;74.70;;;;;;5029343;28;20048;-78
2021/10/25 14:04:46;;;;;;;3.95;2.83;;;17.90;74.60;;;;;;5029647;28;20499;-82
2021/10/25 14:07:16;;;;;;;4.45;2.45;;;17.90;74.60;;;;;;5029344;28;20396;-79
2021/10/25 14:09:44;;;;;;;5.90;2.28;;;18.00;74.50;;;;;;5029573;28;20048;-77
2021/10/25 14:12:10;;;;;;;3.65;2.30;;;18.00;74.40;;;;;;5027949;28;20374;-78
2021/10/25 14:14:37;;;;;;;4.35;2.40;;;18.00;74.40;;;;;;5028674;28;20026;-79
2021/10/25 14:17:03;;;;;;;4.95;2.85;;;18.00;74.40;;;;;;5027930;28;20029;-78
2021/10/25 14:19:29;;;;;;;3.90;2.20;;;18.00;74.60;;;;;;5029129;28;20033;-83
2021/10/25 14:21:56;;;;;;;4.60;2.17;;;18.00;74.60;;;;;;5029116;28;20034;-77
2021/10/25 14:24:23;;;;;;;3.95;2.30;;;18.00;74.50;;;;;;5029542;28;20026;-81
2021/10/25 14:26:50;;;;;;;4.07;2.28;;;18.00;74.50;;;;;;5028530;28;20034;-80
2021/10/25 14:29:16;;;;;;;4.50;2.53;;;18.00;74.50;;;;;;5029102;28;20020;-77
2021/10/25 14:31:45;;;;;;;5.53;2.42;;;18.00;74.60;;;;;;5029098;28;20021;-76
2021/10/25 14:34:13;;;;;;;3.97;2.30;;;18.00;74.70;;;;;;5028908;28;20033;-76
2021/10/25 14:36:41;;;;;;;5.07;2.40;;;18.00;74.50;;;;;;5029179;28;20029;-77